Thursday, December 18, 2014
23:05 UTC
  |  Log In   |  Register Free
Airport Search:

Newnan Coweta County Airport
(KCCO)

Newnan Coweta County Airport Diagram
No Airport Diagram Available

FAA data valid effective November 13, 2014 - January 08, 2015 (unless otherwise noted).

 
 
 
 
 
 
 
 
 
 
 
 
 
 

Current Aviation Weather for Newnan Coweta County Airport (KCCO)

The most recent METAR observation for KCCO was updated at: 2112
METAR Summary (Translated METAR)
KCCO
182055Z AUTO 29003KT 10SM OVC048 13/00 A3011 RMK AO2 T01330001
KFFC
182053Z AUTO 31004KT 10SM BKN050 BKN120 13/M01 A3012 RMK AO2 SLP202 T01281011 55009
(10.3 nm NE from KCCO)
KLGC
182055Z AUTO 00000KT 10SM SCT050 SCT110 14/02 A3011 RMK AO2 T01420020
(23.7 nm SW from KCCO)
TAF
No TAF information found within 50 nm of KCCO
  Airport Weather Conditions for KCCO

 Current Weather at CCO
55° F
Overcast
North winds at 0.0 mph
CCO NOAA Radar

Pressure: 30.10 in
Humidity: 47%
Wind: Calm
Dew Point: 34.5°F
Visibility: 10.00 mi


Airport Weather Forecast for KCCO

Translated METAR and TAF for KCCO
Translated METAR for KCCO (2305 UTC 18 December 2014)
found at http://aviationweather.gov/adds/metars/
 
METAR text: KCCO 182255Z AUTO 00000KT 10SM OVC047 11/03 A3012 RMK AO2 T01100031
Conditions at: KCCO (NEWNAN , GA, US) observed 2255 UTC 18 December 2014
Temperature: 11.0°C (52°F)
Dewpoint: 3.1°C (38°F) [RH = 58%]
Pressure (altimeter): 30.12 inches Hg (1020.1 mb)
Winds: calm
Visibility: 10 or more miles (16+ km)
Ceiling: 4700 feet AGL
Clouds: overcast cloud deck at 4700 feet AGL
Weather: automated observation with no human augmentation;
there may or may not be significant weather present at this time
Translated TAF for KCCO

There is no translated TAF available for this airport

Find All Airport Services Find A Hotel Find A Rental Car Find A Golf Course Find A Restaurant $100 Hamburger



FBO's on the Field
FBO Company Facility Photos Services Transportation Aviation Fuel Prices: Prices include tax
Catering Weather Repair Courtesy Rental Type 100LL JetA JetA+ MOGAS 8087
 
CCO Airport Services

This FBO has not yet been rated
FS:Shell
Last Updated: Nov-21
Login to update fuel prices
SS:
Contact CCO Airport ServicesMore FBO Information
 
Add another FBO Facility Photos Catering Weather Repair Courtesy Rental Type 100LL JetA JetA+ MOGAS 8087
Services Transportation Aviation Fuel Prices: Prices include tax


model-print
model-print
model-print
model-print